Time;durP1;ratioP1;P1;durP2;ratioP2;P2;SDS_P1;SDS_P2;PMS_P1;PMS_P2;Temp;Humidity;BMP_temperature;BMP_pressure;BME280_temperature;BME280_humidity;BME280_pressure;Samples;Min_cycle;Max_cycle;Signal;HPM_P1;HPM_P2
2022/08/20 00:00:47;;;;;;;10.02;8.10;;;25.80;68.60;;;;;;5014311;28;20116;-72
2022/08/20 00:03:26;;;;;;;8.07;6.75;;;25.80;68.60;;;;;;4998215;28;20049;-72
2022/08/20 00:05:59;;;;;;;9.30;7.82;;;25.80;68.70;;;;;;4997389;28;20060;-72
2022/08/20 00:08:26;;;;;;;8.75;7.50;;;25.80;68.70;;;;;;5014328;28;20045;-72
2022/08/20 00:10:52;;;;;;;11.85;8.15;;;25.80;68.70;;;;;;4998116;28;20029;-72
2022/08/20 00:13:27;;;;;;;9.27;7.30;;;25.80;68.80;;;;;;5031799;28;20029;-72
2022/08/20 00:15:53;;;;;;;11.00;8.60;;;25.80;68.70;;;;;;4997287;28;20033;-72
2022/08/20 00:18:20;;;;;;;11.18;7.72;;;25.80;68.80;;;;;;5014035;28;20026;-72
2022/08/20 00:20:49;;;;;;;9.77;7.95;;;25.80;68.90;;;;;;5031753;28;20041;-72
2022/08/20 00:23:15;;;;;;;9.88;7.93;;;25.80;68.90;;;;;;5014110;28;20397;-72
2022/08/20 00:25:53;;;;;;;13.35;9.20;;;25.70;68.80;;;;;;4981212;28;20482;-72
2022/08/20 00:28:19;;;;;;;12.05;9.68;;;25.80;68.80;;;;;;5014104;28;20040;-72
2022/08/20 00:30:46;;;;;;;10.75;9.10;;;25.70;68.90;;;;;;5031737;28;20021;-72
2022/08/20 00:33:17;;;;;;;10.07;8.38;;;25.70;69.00;;;;;;5044614;23;20050;-78
2022/08/20 00:35:48;;;;;;;10.43;8.23;;;25.80;69.10;;;;;;5090648;28;20020;-79
2022/08/20 00:38:14;;;;;;;11.55;8.75;;;25.80;69.10;;;;;;5053827;28;20070;-77
2022/08/20 00:40:47;;;;;;;10.45;8.60;;;25.80;69.10;;;;;;5053564;28;20031;-78
2022/08/20 00:43:32;;;;;;;13.07;8.93;;;25.80;69.20;;;;;;5053576;28;20024;-77
2022/08/20 00:46:01;;;;;;;11.63;8.50;;;25.70;69.30;;;;;;5052879;28;20408;-77
2022/08/20 00:48:31;;;;;;;11.07;8.70;;;25.70;69.20;;;;;;5071510;28;20029;-78
2022/08/20 00:51:15;;;;;;;9.18;7.93;;;25.80;69.40;;;;;;5053610;28;20032;-78
2022/08/20 00:53:42;;;;;;;12.30;9.20;;;25.80;69.40;;;;;;5037323;28;20040;-77
2022/08/20 00:56:10;;;;;;;11.18;8.45;;;25.70;69.30;;;;;;5070688;28;20032;-78
2022/08/20 00:58:38;;;;;;;10.45;8.35;;;25.70;69.40;;;;;;5053612;28;20034;-77
2022/08/20 01:01:06;;;;;;;11.33;8.70;;;25.70;69.40;;;;;;5053543;28;20029;-78
2022/08/20 01:03:32;;;;;;;12.45;9.10;;;25.80;69.40;;;;;;5071296;28;20048;-77
2022/08/20 01:05:59;;;;;;;11.32;8.13;;;25.70;69.30;;;;;;5070396;28;20024;-79
2022/08/20 01:08:25;;;;;;;11.38;8.48;;;25.70;69.40;;;;;;5036866;28;20032;-78
2022/08/20 01:11:05;;;;;;;14.85;8.48;;;25.70;69.30;;;;;;5073003;28;20038;-79
2022/08/20 01:13:34;;;;;;;10.63;8.43;;;25.70;69.30;;;;;;5074950;28;20028;-79
2022/08/20 01:16:02;;;;;;;12.32;8.77;;;25.70;69.30;;;;;;5074058;28;20028;-80
2022/08/20 01:18:30;;;;;;;11.73;8.43;;;25.70;69.20;;;;;;5040990;28;20074;-78
2022/08/20 01:21:00;;;;;;;11.13;7.93;;;25.80;69.30;;;;;;5056895;28;20304;-79
2022/08/20 01:23:49;;;;;;;10.43;7.53;;;25.70;69.30;;;;;;5056850;28;20074;-78
2022/08/20 01:26:33;;;;;;;13.10;8.43;;;25.70;69.20;;;;;;5056239;28;20033;-78
2022/08/20 01:29:16;;;;;;;11.32;7.82;;;25.70;69.20;;;;;;5074791;28;20040;-79
2022/08/20 01:31:43;;;;;;;11.98;8.52;;;25.70;69.20;;;;;;5074624;28;20480;-79
2022/08/20 01:34:15;;;;;;;9.90;7.78;;;25.70;69.30;;;;;;5056659;28;20102;-79
2022/08/20 01:36:49;;;;;;;10.45;7.72;;;25.70;69.30;;;;;;5074035;28;20070;-79
2022/08/20 01:39:20;;;;;;;10.38;7.72;;;25.70;69.30;;;;;;5074825;28;20111;-79
2022/08/20 01:42:25;;;;;;;10.13;8.15;;;25.70;69.40;;;;;;5056677;28;20055;-79
2022/08/20 01:44:51;;;;;;;10.10;7.85;;;25.70;69.30;;;;;;5074455;28;20025;-78
2022/08/20 01:47:26;;;;;;;8.75;7.32;;;25.70;69.30;;;;;;5073569;28;20036;-79
2022/08/20 01:49:55;;;;;;;8.63;7.22;;;25.70;69.20;;;;;;5074386;28;20032;-78
2022/08/20 01:52:35;;;;;;;9.15;7.20;;;25.70;69.30;;;;;;5074322;28;20039;-78
2022/08/20 01:55:02;;;;;;;9.70;7.03;;;25.70;69.40;;;;;;5056055;28;20430;-78
2022/08/20 01:57:28;;;;;;;8.88;7.10;;;25.70;69.40;;;;;;5055900;28;20028;-78
2022/08/20 01:59:54;;;;;;;7.75;6.40;;;25.70;69.50;;;;;;5074121;28;20387;-78
2022/08/20 02:02:21;;;;;;;8.43;6.05;;;25.70;69.50;;;;;;5074361;28;20024;-78
2022/08/20 02:04:47;;;;;;;7.57;6.32;;;25.60;69.60;;;;;;5074008;28;20090;-79
2022/08/20 02:07:20;;;;;;;9.82;6.43;;;25.70;69.60;;;;;;5073315;28;20396;-78
2022/08/20 02:09:46;;;;;;;7.50;6.13;;;25.70;69.60;;;;;;5074017;28;20086;-78
2022/08/20 02:12:13;;;;;;;7.97;6.10;;;25.70;69.60;;;;;;5074048;28;20032;-78
2022/08/20 02:14:41;;;;;;;7.43;6.20;;;25.70;69.70;;;;;;5073811;28;20021;-78
2022/08/20 02:17:08;;;;;;;8.98;6.18;;;25.60;69.70;;;;;;5055555;28;20074;-78
2022/08/20 02:19:41;;;;;;;9.45;6.65;;;25.60;69.70;;;;;;5073816;28;20231;-78
2022/08/20 02:22:24;;;;;;;7.78;6.68;;;25.70;69.70;;;;;;5038787;28;20506;-77
2022/08/20 02:24:50;;;;;;;7.47;6.05;;;25.60;69.70;;;;;;5055843;28;20036;-77
2022/08/20 02:27:18;;;;;;;7.25;6.18;;;25.70;70.40;;;;;;5072821;28;20472;-78
2022/08/20 02:29:45;;;;;;;7.50;6.28;;;25.60;69.70;;;;;;5055849;28;20119;-78
2022/08/20 02:32:11;;;;;;;8.30;6.63;;;25.70;69.70;;;;;;5073817;28;20039;-78
2022/08/20 02:34:37;;;;;;;9.35;6.57;;;25.60;69.70;;;;;;5055535;28;20025;-77
2022/08/20 02:37:05;;;;;;;8.25;6.68;;;25.60;69.80;;;;;;5054929;28;20077;-78
2022/08/20 02:39:31;;;;;;;7.90;6.35;;;25.60;69.90;;;;;;5073297;28;20020;-77
2022/08/20 02:41:57;;;;;;;8.90;6.38;;;25.70;70.10;;;;;;5055659;28;20079;-78
2022/08/20 02:44:23;;;;;;;7.95;6.47;;;25.60;69.80;;;;;;5073211;28;20039;-77
2022/08/20 02:46:49;;;;;;;8.95;6.72;;;25.60;69.80;;;;;;5054507;28;20549;-77
2022/08/20 02:49:16;;;;;;;7.25;6.20;;;25.60;70.00;;;;;;5073218;28;20024;-78
2022/08/20 02:51:43;;;;;;;8.18;6.93;;;25.60;70.00;;;;;;5071845;28;20469;-77
2022/08/20 02:54:09;;;;;;;8.90;6.93;;;25.60;69.90;;;;;;5073013;28;20047;-78
2022/08/20 02:56:35;;;;;;;8.52;6.32;;;25.70;70.00;;;;;;5072406;28;20662;-78
2022/08/20 02:59:01;;;;;;;8.00;6.55;;;25.70;70.00;;;;;;5072993;28;20035;-77
2022/08/20 03:01:27;;;;;;;7.40;6.63;;;25.60;69.90;;;;;;5072991;28;20021;-78
2022/08/20 03:03:55;;;;;;;7.97;6.40;;;25.60;70.00;;;;;;5072829;28;20024;-78
2022/08/20 03:06:22;;;;;;;7.53;6.30;;;25.70;70.00;;;;;;5072099;28;20361;-78
2022/08/20 03:08:48;;;;;;;7.32;6.53;;;25.70;69.90;;;;;;5055097;28;20028;-78
2022/08/20 03:11:15;;;;;;;9.10;7.40;;;25.70;70.10;;;;;;5072783;28;20029;-78
2022/08/20 03:13:40;;;;;;;10.93;7.95;;;25.70;70.00;;;;;;5054671;28;20477;-78
2022/08/20 03:16:07;;;;;;;9.48;8.05;;;25.70;70.20;;;;;;5071891;28;20043;-78
2022/08/20 03:18:40;;;;;;;10.95;8.00;;;25.60;70.10;;;;;;5054774;28;20499;-78
2022/08/20 03:21:06;;;;;;;13.00;8.73;;;25.60;70.20;;;;;;5072628;28;20535;-78
2022/08/20 03:23:33;;;;;;;11.55;8.85;;;25.60;70.20;;;;;;5072583;28;20029;-78
2022/08/20 03:26:00;;;;;;;11.27;8.32;;;25.60;70.10;;;;;;5037037;28;20481;-78
2022/08/20 03:28:26;;;;;;;12.27;9.13;;;25.60;70.20;;;;;;5072642;28;20075;-78
2022/08/20 03:30:53;;;;;;;10.30;8.18;;;25.60;70.20;;;;;;5072425;28;20452;-78
2022/08/20 03:33:19;;;;;;;10.65;8.48;;;25.60;70.20;;;;;;5071263;28;20085;-78
2022/08/20 03:35:46;;;;;;;10.45;8.50;;;25.60;70.30;;;;;;5071512;28;20024;-78
2022/08/20 03:38:14;;;;;;;10.30;9.10;;;25.60;70.30;;;;;;5072429;28;20048;-78
2022/08/20 03:40:40;;;;;;;11.40;9.48;;;25.60;70.20;;;;;;5072411;28;20020;-78
2022/08/20 03:43:08;;;;;;;12.15;9.55;;;25.60;70.20;;;;;;5072164;28;20377;-78
2022/08/20 03:45:35;;;;;;;12.45;10.20;;;25.60;70.30;;;;;;5071376;28;20453;-78
2022/08/20 03:48:02;;;;;;;12.10;9.48;;;25.60;70.30;;;;;;5054300;28;20493;-79
2022/08/20 03:50:30;;;;;;;13.40;10.00;;;25.60;70.60;;;;;;5072025;28;20028;-78
2022/08/20 03:52:57;;;;;;;12.18;9.55;;;25.60;70.30;;;;;;5071894;28;20021;-78
2022/08/20 03:55:25;;;;;;;14.88;11.30;;;25.60;70.30;;;;;;5053373;28;20032;-78
2022/08/20 03:57:57;;;;;;;12.88;10.48;;;25.50;70.30;;;;;;5072045;28;20027;-78
2022/08/20 04:00:28;;;;;;;15.40;10.07;;;25.60;70.40;;;;;;5054168;28;20038;-78
2022/08/20 04:02:55;;;;;;;12.48;10.32;;;25.60;70.30;;;;;;5071819;28;20161;-78
2022/08/20 04:05:23;;;;;;;14.25;10.93;;;25.60;70.20;;;;;;5071102;28;20036;-78
2022/08/20 04:07:50;;;;;;;15.00;10.57;;;25.60;70.10;;;;;;5037542;28;20381;-78
2022/08/20 04:10:16;;;;;;;13.27;10.48;;;25.60;70.00;;;;;;5071860;28;20032;-77
2022/08/20 04:12:42;;;;;;;13.55;10.43;;;25.60;70.10;;;;;;5071749;28;20036;-78
2022/08/20 04:15:11;;;;;;;13.90;9.93;;;25.60;70.10;;;;;;5070978;28;20115;-77
2022/08/20 04:17:40;;;;;;;13.00;9.80;;;25.60;70.70;;;;;;5053909;28;20503;-77
2022/08/20 04:20:08;;;;;;;12.30;9.75;;;25.60;70.10;;;;;;5071889;28;20070;-77
2022/08/20 04:22:35;;;;;;;14.95;11.10;;;25.60;70.10;;;;;;5071663;28;20029;-78
2022/08/20 04:25:03;;;;;;;11.88;9.73;;;25.60;70.00;;;;;;5071383;28;20029;-78
2022/08/20 04:27:31;;;;;;;12.40;10.13;;;25.60;69.90;;;;;;5071252;28;20032;-78
2022/08/20 04:29:58;;;;;;;14.85;10.63;;;25.60;69.90;;;;;;5053763;28;20036;-78
2022/08/20 04:32:24;;;;;;;12.30;10.13;;;25.60;70.00;;;;;;5071718;28;20388;-79
2022/08/20 04:34:51;;;;;;;13.30;10.32;;;25.60;69.80;;;;;;5053577;28;20028;-78
2022/08/20 04:37:23;;;;;;;13.27;9.43;;;25.60;69.80;;;;;;5069684;28;20024;-79
2022/08/20 04:42:35;;;;;;;14.25;10.73;;;25.60;69.90;;;;;;5071539;28;20181;-77
2022/08/20 04:45:04;;;;;;;14.90;10.88;;;25.60;69.90;;;;;;5073541;28;20071;-78
2022/08/20 04:47:30;;;;;;;13.57;10.67;;;25.60;69.90;;;;;;5075162;28;20035;-78
2022/08/20 04:49:59;;;;;;;14.68;11.00;;;25.60;69.90;;;;;;5075574;28;20024;-77
2022/08/20 04:52:26;;;;;;;14.05;10.70;;;25.60;69.90;;;;;;5075246;28;20040;-78
2022/08/20 04:54:56;;;;;;;14.77;11.40;;;25.60;70.00;;;;;;5075307;28;20029;-78
2022/08/20 04:57:23;;;;;;;15.98;12.60;;;25.60;69.90;;;;;;5074627;28;20362;-78
2022/08/20 04:59:50;;;;;;;15.13;11.60;;;25.50;70.00;;;;;;5057472;28;20512;-79
2022/08/20 05:02:17;;;;;;;14.88;11.73;;;25.50;70.00;;;;;;5063173;28;20024;-78
2022/08/20 05:04:43;;;;;;;15.98;12.10;;;25.50;70.00;;;;;;5085405;28;20027;-78
2022/08/20 05:07:14;;;;;;;15.50;11.48;;;25.50;70.10;;;;;;5064152;28;20033;-78
2022/08/20 05:09:41;;;;;;;16.45;12.57;;;25.50;70.10;;;;;;5074941;28;20036;-78
2022/08/20 05:12:07;;;;;;;14.27;11.68;;;25.50;70.70;;;;;;5074815;28;20501;-78
2022/08/20 05:14:33;;;;;;;15.40;11.25;;;25.50;70.10;;;;;;5073653;28;20402;-79
2022/08/20 05:17:04;;;;;;;16.38;12.20;;;25.50;70.20;;;;;;5073624;28;20035;-78
2022/08/20 05:19:32;;;;;;;15.02;11.05;;;25.50;70.20;;;;;;5074933;28;20028;-78
2022/08/20 05:21:58;;;;;;;16.95;11.18;;;25.50;70.10;;;;;;5074717;28;20033;-78
2022/08/20 05:24:24;;;;;;;15.15;11.43;;;25.50;70.00;;;;;;5074811;28;20128;-78
2022/08/20 05:26:50;;;;;;;17.38;12.13;;;25.50;70.00;;;;;;5073903;28;20384;-78
2022/08/20 05:29:16;;;;;;;16.95;12.55;;;25.50;70.00;;;;;;5057044;28;20024;-79
2022/08/20 05:31:42;;;;;;;14.88;11.43;;;25.50;70.00;;;;;;5056887;28;20032;-79
2022/08/20 05:34:10;;;;;;;14.50;10.88;;;25.50;70.00;;;;;;5073498;28;20261;-78
2022/08/20 05:36:42;;;;;;;16.75;11.52;;;25.50;70.00;;;;;;5072640;28;20029;-78
2022/08/20 05:39:09;;;;;;;15.00;11.55;;;25.50;69.90;;;;;;5074762;28;20029;-78
2022/08/20 05:41:36;;;;;;;13.52;11.18;;;25.50;69.80;;;;;;5073053;28;20025;-78
2022/08/20 05:44:02;;;;;;;17.08;12.18;;;25.50;69.80;;;;;;5073084;28;20496;-78
2022/08/20 05:46:30;;;;;;;15.38;12.30;;;25.50;69.80;;;;;;5072498;28;20029;-79
2022/08/20 05:48:56;;;;;;;15.60;12.30;;;25.50;69.70;;;;;;5074337;28;20029;-79
2022/08/20 05:51:22;;;;;;;15.52;11.60;;;25.50;69.70;;;;;;5073093;28;20491;-78
2022/08/20 05:53:47;;;;;;;15.85;11.35;;;25.50;69.70;;;;;;5074457;28;20025;-78
2022/08/20 05:56:13;;;;;;;16.88;11.13;;;25.50;69.60;;;;;;5072595;28;20036;-78
2022/08/20 05:58:39;;;;;;;16.55;12.10;;;25.50;69.60;;;;;;5074181;28;20082;-78
2022/08/20 06:01:05;;;;;;;15.93;12.65;;;25.50;69.60;;;;;;5074271;28;20035;-79
2022/08/20 06:06:15;;;;;;;17.63;11.65;;;25.50;69.60;;;;;;5073262;28;20109;-78
2022/08/20 06:08:41;;;;;;;15.55;10.98;;;25.50;69.60;;;;;;5073996;28;20059;-79
2022/08/20 06:11:07;;;;;;;18.33;12.82;;;25.50;69.60;;;;;;5072695;28;20063;-79
2022/08/20 06:13:33;;;;;;;14.68;11.60;;;25.50;69.50;;;;;;5072629;28;20031;-79
2022/08/20 06:16:00;;;;;;;15.38;12.43;;;25.50;69.50;;;;;;5071885;28;20049;-78
2022/08/20 06:18:26;;;;;;;15.68;11.90;;;25.50;69.40;;;;;;5073638;28;20030;-79
2022/08/20 06:20:52;;;;;;;14.43;11.35;;;25.50;69.60;;;;;;5072818;28;20020;-77
2022/08/20 06:23:18;;;;;;;18.75;12.65;;;25.50;69.60;;;;;;5073883;28;20422;-77
2022/08/20 06:25:45;;;;;;;14.38;12.10;;;25.50;69.60;;;;;;5072924;28;20052;-77
2022/08/20 06:28:13;;;;;;;14.25;11.40;;;25.50;69.60;;;;;;5073511;28;20032;-78
2022/08/20 06:30:39;;;;;;;15.82;12.30;;;25.50;69.50;;;;;;5073528;28;20056;-78
2022/08/20 06:33:05;;;;;;;15.82;12.13;;;25.50;69.30;;;;;;5087991;22;20036;-73
2022/08/20 06:35:32;;;;;;;15.80;12.02;;;25.50;69.40;;;;;;5075537;28;20032;-73
2022/08/20 06:37:59;;;;;;;16.63;12.27;;;25.50;69.30;;;;;;5020409;28;20056;-74
2022/08/20 06:40:27;;;;;;;14.45;11.70;;;25.50;69.30;;;;;;5071622;28;20020;-73
2022/08/20 06:42:54;;;;;;;13.88;10.98;;;25.50;69.30;;;;;;5053301;28;20453;-74
2022/08/20 06:45:24;;;;;;;15.18;11.32;;;25.50;69.20;;;;;;5070306;28;20040;-74
2022/08/20 06:47:52;;;;;;;16.70;11.48;;;25.50;69.20;;;;;;5036996;28;20036;-73
2022/08/20 06:50:22;;;;;;;16.73;12.30;;;25.50;69.40;;;;;;5036765;28;20455;-74
2022/08/20 06:52:48;;;;;;;13.95;12.05;;;25.50;69.40;;;;;;5036432;28;20032;-75
2022/08/20 06:55:16;;;;;;;13.93;11.45;;;25.50;69.50;;;;;;5035682;28;20063;-75
2022/08/20 06:57:42;;;;;;;17.40;12.43;;;25.50;69.50;;;;;;5070929;28;20108;-74
2022/08/20 07:00:17;;;;;;;15.75;11.43;;;25.50;69.50;;;;;;5071013;28;20029;-75
2022/08/20 07:02:43;;;;;;;15.73;12.30;;;25.40;69.40;;;;;;5053009;28;20472;-75
2022/08/20 07:05:09;;;;;;;13.85;10.77;;;25.50;69.50;;;;;;5070130;28;20036;-74
2022/08/20 07:07:36;;;;;;;15.57;11.68;;;25.50;69.40;;;;;;5052848;28;20020;-74
2022/08/20 07:10:07;;;;;;;16.48;12.35;;;25.50;69.40;;;;;;5070773;28;20043;-75
2022/08/20 07:12:35;;;;;;;16.02;11.43;;;25.50;69.40;;;;;;5070601;28;20052;-74
2022/08/20 07:15:06;;;;;;;13.25;10.32;;;25.50;69.60;;;;;;5035791;28;20066;-75
2022/08/20 07:17:32;;;;;;;15.25;11.52;;;25.50;69.50;;;;;;5052488;28;20039;-75
2022/08/20 07:20:06;;;;;;;15.18;11.60;;;25.50;69.40;;;;;;5070934;28;20035;-74
2022/08/20 07:22:35;;;;;;;14.95;11.00;;;25.50;69.30;;;;;;5070394;28;20057;-74
2022/08/20 07:25:06;;;;;;;15.83;12.17;;;25.50;69.30;;;;;;5052064;28;20523;-75
2022/08/20 07:27:32;;;;;;;15.02;11.52;;;25.50;69.20;;;;;;5052623;28;20172;-74
2022/08/20 07:32:45;;;;;;;13.73;11.13;;;25.50;69.10;;;;;;5070200;28;20028;-74
2022/08/20 07:35:14;;;;;;;14.65;11.15;;;25.50;69.00;;;;;;5069230;28;20383;-74
2022/08/20 07:37:44;;;;;;;15.10;13.07;;;25.50;69.00;;;;;;5070243;28;20020;-74
2022/08/20 07:40:16;;;;;;;16.15;12.93;;;25.50;69.00;;;;;;5035383;28;20416;-73
2022/08/20 07:42:42;;;;;;;17.05;12.93;;;25.50;69.00;;;;;;5070032;28;20473;-74
2022/08/20 07:45:10;;;;;;;15.25;11.77;;;25.50;69.10;;;;;;5069255;28;20028;-74
2022/08/20 07:47:40;;;;;;;16.45;12.95;;;25.50;69.00;;;;;;5070242;28;20075;-74
2022/08/20 07:50:09;;;;;;;16.88;13.48;;;25.40;69.00;;;;;;5052266;28;20043;-74
2022/08/20 07:52:35;;;;;;;15.93;12.70;;;25.40;69.10;;;;;;5051911;28;20039;-75
2022/08/20 07:55:03;;;;;;;17.75;12.38;;;25.40;69.00;;;;;;5051550;28;20098;-74
2022/08/20 07:57:29;;;;;;;16.63;12.57;;;25.50;69.20;;;;;;5051485;28;20035;-75
2022/08/20 07:59:57;;;;;;;17.02;11.52;;;25.40;69.20;;;;;;5035451;28;20024;-74
2022/08/20 08:02:25;;;;;;;17.63;14.05;;;25.40;69.20;;;;;;5035160;28;20044;-74
2022/08/20 08:04:51;;;;;;;15.65;12.60;;;25.40;69.30;;;;;;5051638;28;20028;-75
2022/08/20 08:07:16;;;;;;;17.75;13.82;;;25.40;69.30;;;;;;5069016;28;20028;-75
2022/08/20 08:09:43;;;;;;;15.35;12.13;;;25.40;69.30;;;;;;5069861;28;20028;-75
2022/08/20 08:12:12;;;;;;;15.23;12.90;;;25.40;69.20;;;;;;5069558;28;20029;-74
2022/08/20 08:14:40;;;;;;;16.27;12.63;;;25.40;69.20;;;;;;5051682;28;20027;-74
2022/08/20 08:17:07;;;;;;;18.75;13.90;;;25.40;69.20;;;;;;5033990;28;20031;-75
2022/08/20 08:19:38;;;;;;;18.80;15.65;;;25.40;69.40;;;;;;5051075;28;20124;-75
2022/08/20 08:22:12;;;;;;;17.42;14.35;;;25.40;69.60;;;;;;5069493;28;20039;-74
2022/08/20 08:24:39;;;;;;;15.82;12.60;;;25.50;69.60;;;;;;5051434;28;20029;-74
2022/08/20 08:27:07;;;;;;;17.23;14.38;;;25.40;69.80;;;;;;5050549;28;20040;-75
2022/08/20 08:29:34;;;;;;;18.00;14.60;;;25.40;69.80;;;;;;5069613;28;20052;-74
2022/08/20 08:32:05;;;;;;;20.65;14.13;;;25.40;69.70;;;;;;5069213;28;20119;-75
2022/08/20 08:34:33;;;;;;;21.15;14.32;;;25.40;69.70;;;;;;5034705;28;20028;-74
2022/08/20 08:37:01;;;;;;;19.20;15.07;;;25.40;69.80;;;;;;5050375;28;20408;-75
2022/08/20 08:39:32;;;;;;;17.98;15.02;;;25.40;70.00;;;;;;5069389;28;20161;-74
2022/08/20 08:42:02;;;;;;;18.30;15.30;;;25.40;70.00;;;;;;5051242;28;20033;-74
2022/08/20 08:44:29;;;;;;;20.42;16.25;;;25.40;69.90;;;;;;5069567;28;20052;-74
2022/08/20 08:47:30;;;;;;;20.63;15.70;;;25.40;70.00;;;;;;5017608;28;20063;-74
2022/08/20 08:49:56;;;;;;;19.75;15.07;;;25.40;69.80;;;;;;5051426;28;20036;-74
2022/08/20 08:52:30;;;;;;;20.58;14.77;;;25.40;69.80;;;;;;5051021;28;20035;-74
2022/08/20 08:55:00;;;;;;;19.75;16.27;;;25.40;69.80;;;;;;5051402;28;20086;-74
2022/08/20 08:57:27;;;;;;;17.70;14.82;;;25.40;70.00;;;;;;5050779;28;20021;-74
2022/08/20 09:00:05;;;;;;;17.88;15.38;;;25.40;69.80;;;;;;5034639;28;20422;-74
2022/08/20 09:02:32;;;;;;;16.95;13.85;;;25.40;69.80;;;;;;5069357;28;20054;-73
2022/08/20 09:05:01;;;;;;;19.85;15.68;;;25.40;69.90;;;;;;5069110;28;20028;-74
2022/08/20 09:07:31;;;;;;;19.25;14.68;;;25.40;69.80;;;;;;5068749;28;20063;-73
2022/08/20 09:09:57;;;;;;;21.33;15.80;;;25.40;69.60;;;;;;5051073;28;20422;-74
2022/08/20 09:12:26;;;;;;;20.95;15.65;;;25.40;69.60;;;;;;5034543;28;20037;-74
2022/08/20 09:14:53;;;;;;;20.85;15.80;;;25.40;69.80;;;;;;5034875;28;20033;-74
2022/08/20 09:17:20;;;;;;;18.45;15.30;;;25.40;69.70;;;;;;5068420;28;20175;-74
2022/08/20 09:19:46;;;;;;;21.25;14.85;;;25.40;69.80;;;;;;5069082;28;20021;-74
2022/08/20 09:22:15;;;;;;;21.63;16.67;;;25.40;69.70;;;;;;5069094;28;20024;-74
2022/08/20 09:24:41;;;;;;;20.55;15.98;;;25.40;69.60;;;;;;5050925;28;20391;-74
2022/08/20 09:27:08;;;;;;;18.58;15.48;;;25.40;69.70;;;;;;5068866;28;20032;-73
2022/08/20 09:29:34;;;;;;;18.48;15.48;;;25.40;69.80;;;;;;5051850;28;20437;-73
2022/08/20 09:32:04;;;;;;;18.27;15.35;;;25.40;69.80;;;;;;5054919;28;20040;-74
2022/08/20 09:34:29;;;;;;;22.83;16.08;;;25.40;69.80;;;;;;5038665;28;20119;-74
2022/08/20 09:36:55;;;;;;;17.73;15.35;;;25.40;69.90;;;;;;5054797;28;20124;-74
2022/08/20 09:39:21;;;;;;;21.02;16.20;;;25.40;69.70;;;;;;5072599;28;20414;-74
2022/08/20 09:41:47;;;;;;;19.65;15.75;;;25.40;69.70;;;;;;5072643;28;20038;-74
2022/08/20 09:44:13;;;;;;;19.15;15.68;;;25.40;69.60;;;;;;5072425;28;20103;-75
2022/08/20 09:46:38;;;;;;;18.20;15.30;;;25.40;69.50;;;;;;5053303;28;20120;-74
2022/08/20 09:49:04;;;;;;;20.70;15.80;;;25.40;69.50;;;;;;5054333;28;20025;-74
2022/08/20 09:51:31;;;;;;;17.80;14.95;;;25.40;69.60;;;;;;5054150;28;20033;-74
2022/08/20 09:53:58;;;;;;;18.20;13.90;;;25.40;69.60;;;;;;5053862;28;20492;-74
2022/08/20 09:56:24;;;;;;;16.02;14.30;;;25.40;69.60;;;;;;5036808;28;20107;-74
2022/08/20 09:58:52;;;;;;;17.33;14.23;;;25.30;69.60;;;;;;5072197;28;20058;-74
2022/08/20 10:01:21;;;;;;;17.38;14.18;;;25.40;69.60;;;;;;5037491;28;20025;-74
2022/08/20 10:03:48;;;;;;;16.30;12.90;;;25.40;69.40;;;;;;5054206;28;20024;-74
2022/08/20 10:06:16;;;;;;;18.85;13.73;;;25.40;69.30;;;;;;5053247;28;20039;-74
2022/08/20 10:08:43;;;;;;;15.77;14.07;;;25.40;69.20;;;;;;5072132;28;20120;-74
2022/08/20 10:11:08;;;;;;;17.60;13.30;;;25.40;69.20;;;;;;5072548;28;20478;-74
2022/08/20 10:13:34;;;;;;;17.35;13.30;;;25.30;69.10;;;;;;5053969;28;20033;-74
2022/08/20 10:16:00;;;;;;;20.98;13.75;;;25.40;69.10;;;;;;5071241;28;20089;-74
2022/08/20 10:18:26;;;;;;;16.42;13.25;;;25.40;69.10;;;;;;5071810;28;20120;-74
2022/08/20 10:20:52;;;;;;;16.50;13.05;;;25.40;69.00;;;;;;5071918;28;20485;-74
2022/08/20 10:23:17;;;;;;;14.57;11.10;;;25.40;68.90;;;;;;5053706;28;20025;-74
2022/08/20 10:25:43;;;;;;;17.60;11.73;;;25.40;68.90;;;;;;5071039;28;20029;-74
2022/08/20 10:28:09;;;;;;;15.43;11.15;;;25.40;68.90;;;;;;5053667;28;20393;-74
2022/08/20 10:30:36;;;;;;;15.02;10.90;;;25.40;68.80;;;;;;5071687;28;20082;-74
2022/08/20 10:33:01;;;;;;;15.07;10.70;;;25.40;68.60;;;;;;5053362;28;20056;-75
2022/08/20 10:35:27;;;;;;;19.15;11.15;;;25.40;68.50;;;;;;5036401;28;20079;-74
2022/08/20 10:37:53;;;;;;;15.80;11.80;;;25.40;68.20;;;;;;5071516;28;20361;-74
2022/08/20 10:40:20;;;;;;;15.23;11.48;;;25.40;68.10;;;;;;5036868;28;20029;-74
2022/08/20 10:42:46;;;;;;;13.93;10.40;;;25.40;68.10;;;;;;5052909;28;20028;-74
2022/08/20 10:45:14;;;;;;;13.15;10.43;;;25.40;68.20;;;;;;5052402;28;20032;-75
2022/08/20 10:47:40;;;;;;;16.65;11.27;;;25.40;68.00;;;;;;5053337;28;20107;-74
2022/08/20 10:50:10;;;;;;;11.07;9.43;;;25.40;67.80;;;;;;5053235;28;20032;-74
2022/08/20 10:52:36;;;;;;;;;;;25.40;67.80;;;;;;5053274;28;20048;-74
2022/08/20 10:55:03;;;;;;;14.65;9.48;;;25.40;67.60;;;;;;5052790;28;20511;-75
2022/08/20 10:57:30;;;;;;;14.40;9.35;;;25.40;67.60;;;;;;5070357;28;20029;-74
2022/08/20 10:59:57;;;;;;;14.05;9.35;;;25.40;67.50;;;;;;5070928;28;20107;-74
2022/08/20 11:02:25;;;;;;;13.45;8.77;;;25.40;67.70;;;;;;5052793;28;20519;-74
2022/08/20 11:04:51;;;;;;;12.02;9.15;;;25.40;67.60;;;;;;5070665;28;20048;-74
2022/08/20 11:07:27;;;;;;;10.57;7.97;;;25.40;67.80;;;;;;5035308;28;20296;-74
2022/08/20 11:09:54;;;;;;;11.80;8.02;;;25.40;67.80;;;;;;5070628;28;20033;-74
2022/08/20 11:12:21;;;;;;;13.90;8.93;;;25.40;67.40;;;;;;5070609;28;20073;-74
2022/08/20 11:14:48;;;;;;;10.45;7.82;;;25.40;67.00;;;;;;5052667;28;20028;-74
2022/08/20 11:17:29;;;;;;;10.23;7.93;;;25.40;67.00;;;;;;5051993;28;20120;-74
2022/08/20 11:19:56;;;;;;;11.05;7.07;;;25.40;66.70;;;;;;5036197;28;20158;-74
2022/08/20 11:22:23;;;;;;;11.85;7.88;;;25.40;66.50;;;;;;5052499;28;20040;-74
2022/08/20 11:24:49;;;;;;;9.77;6.63;;;25.40;66.20;;;;;;5035787;28;20044;-75
2022/08/20 11:27:23;;;;;;;12.57;7.10;;;25.40;66.10;;;;;;5034920;28;20040;-74
2022/08/20 11:29:50;;;;;;;10.68;6.68;;;25.40;66.00;;;;;;5052389;28;20477;-74
2022/08/20 11:32:16;;;;;;;9.82;7.10;;;25.30;66.70;;;;;;5052157;28;20032;-74
2022/08/20 11:34:42;;;;;;;7.93;6.10;;;25.30;66.30;;;;;;5052054;28;20447;-74
2022/08/20 11:37:08;;;;;;;10.13;6.97;;;25.30;66.20;;;;;;5069065;28;20040;-74
2022/08/20 11:39:34;;;;;;;11.40;7.03;;;25.40;65.90;;;;;;5070086;28;20052;-74
2022/08/20 11:42:00;;;;;;;9.23;6.82;;;25.30;65.70;;;;;;5070158;28;20107;-74
2022/08/20 11:44:26;;;;;;;9.20;6.25;;;25.30;65.60;;;;;;5069850;28;20029;-75
2022/08/20 11:46:52;;;;;;;9.90;6.20;;;25.30;65.50;;;;;;5069132;28;20024;-75
2022/08/20 11:49:18;;;;;;;10.55;6.65;;;25.40;65.10;;;;;;5070283;28;20204;-74
2022/08/20 11:51:43;;;;;;;8.50;6.13;;;25.40;65.00;;;;;;5069933;28;20025;-74
2022/08/20 11:54:09;;;;;;;7.82;5.88;;;25.30;65.00;;;;;;5051291;28;20024;-74
2022/08/20 11:56:35;;;;;;;8.60;5.90;;;25.30;64.90;;;;;;5051092;28;20025;-74
2022/08/20 11:59:01;;;;;;;7.80;5.93;;;25.40;64.80;;;;;;5051745;28;20028;-73
2022/08/20 12:01:27;;;;;;;7.05;5.50;;;25.30;64.70;;;;;;5070041;28;20029;-74
2022/08/20 12:03:53;;;;;;;8.00;5.68;;;25.30;64.70;;;;;;5051566;28;20033;-74
2022/08/20 12:06:19;;;;;;;8.60;5.47;;;25.30;64.90;;;;;;5050814;28;20113;-74
2022/08/20 12:08:44;;;;;;;8.60;5.95;;;25.30;64.40;;;;;;5051662;28;20480;-74
2022/08/20 12:11:10;;;;;;;11.55;6.40;;;25.30;64.40;;;;;;5069490;28;20032;-74
2022/08/20 12:13:37;;;;;;;10.63;5.72;;;25.30;64.10;;;;;;5051385;28;20044;-74
2022/08/20 12:16:04;;;;;;;8.65;5.65;;;25.30;64.50;;;;;;5067245;28;20048;-74
2022/08/20 12:18:30;;;;;;;9.40;5.30;;;25.40;63.80;;;;;;5051640;28;20031;-74
2022/08/20 12:20:56;;;;;;;8.52;5.28;;;25.30;63.20;;;;;;5069759;28;20028;-74
2022/08/20 12:23:22;;;;;;;7.75;5.28;;;25.30;63.10;;;;;;5051439;28;20491;-74
2022/08/20 12:25:48;;;;;;;12.02;5.32;;;25.30;63.30;;;;;;5068826;28;20552;-74
2022/08/20 12:28:15;;;;;;;7.68;5.10;;;25.30;62.80;;;;;;5051614;28;20028;-74
2022/08/20 12:30:40;;;;;;;9.18;5.18;;;25.30;62.90;;;;;;5051422;28;20063;-74
2022/08/20 12:33:10;;;;;;;7.22;5.53;;;25.40;62.90;;;;;;5068164;28;20106;-75
2022/08/20 12:35:36;;;;;;;6.05;4.93;;;25.40;62.60;;;;;;5019863;28;20038;-72
2022/08/20 12:38:04;;;;;;;7.25;4.50;;;25.40;62.40;;;;;;5031059;28;20410;-72
2022/08/20 12:40:29;;;;;;;8.07;4.63;;;25.40;62.80;;;;;;5031356;28;20076;-71
2022/08/20 12:42:55;;;;;;;8.27;4.68;;;25.40;62.60;;;;;;5030385;28;20501;-72
2022/08/20 12:45:21;;;;;;;14.45;4.78;;;25.40;62.30;;;;;;5030274;28;20038;-72